createdAt,value
2023-01-17T00:00:16.362Z,98.02
2023-01-17T00:02:44.033Z,97.62
2023-01-17T00:05:29.958Z,98.06
2023-01-17T00:08:15.226Z,98.31
2023-01-17T00:10:42.744Z,97.97
2023-01-17T00:13:12.573Z,97.82
2023-01-17T00:15:42.142Z,98.01
2023-01-17T00:18:08.867Z,97.70
2023-01-17T00:20:54.184Z,97.79
2023-01-17T00:23:47.595Z,97.77
2023-01-17T00:26:20.837Z,98.06
2023-01-17T00:28:47.374Z,97.82
2023-01-17T00:31:20.636Z,97.69
2023-01-17T00:33:49.385Z,98.03
2023-01-17T00:36:18.449Z,97.65
2023-01-17T00:38:44.986Z,97.72
2023-01-17T00:41:14.452Z,99.01
2023-01-17T00:44:02.840Z,98.03
2023-01-17T00:46:48.300Z,97.78
2023-01-17T00:49:41.859Z,96.50
2023-01-17T00:52:32.446Z,96.55
2023-01-17T00:55:17.708Z,97.32
2023-01-17T00:58:03.205Z,96.51
2023-01-17T01:00:48.520Z,97.16
2023-01-17T01:03:36.840Z,96.76
2023-01-17T01:06:29.723Z,97.26
2023-01-17T01:09:18.046Z,96.40
2023-01-17T01:12:08.496Z,96.98
2023-01-17T01:15:01.788Z,97.21
2023-01-17T01:17:47.155Z,96.26
2023-01-17T01:20:32.341Z,97.01
2023-01-17T01:23:20.383Z,97.08
2023-01-17T01:26:13.362Z,96.66
2023-01-17T01:29:06.366Z,97.53
2023-01-17T01:31:56.973Z,97.08
2023-01-17T01:34:30.277Z,96.46
2023-01-17T01:36:59.916Z,96.72
2023-01-17T01:39:26.788Z,96.83
2023-01-17T01:41:58.877Z,96.76
2023-01-17T01:44:48.096Z,97.96
2023-01-17T01:47:32.115Z,97.49
2023-01-17T01:50:02.036Z,96.57
2023-01-17T01:52:39.577Z,97.03
2023-01-17T01:55:29.214Z,97.52
2023-01-17T01:58:04.139Z,96.41
2023-01-17T02:00:35.951Z,96.02
2023-01-17T02:03:07.630Z,96.40
2023-01-17T02:05:36.849Z,96.01
2023-01-17T02:08:08.095Z,95.93
2023-01-17T02:10:41.999Z,95.57
2023-01-17T02:13:10.081Z,95.76
2023-01-17T02:15:56.050Z,96.59
2023-01-17T02:18:40.607Z,97.09
2023-01-17T02:21:45.405Z,96.49
2023-01-17T02:24:20.629Z,96.19
2023-01-17T02:27:23.089Z,96.43
2023-01-17T02:30:11.525Z,95.78
2023-01-17T02:32:53.521Z,96.26
2023-01-17T02:35:42.862Z,96.24
2023-01-17T02:38:33.383Z,95.71
2023-01-17T02:41:19.777Z,95.64
2023-01-17T02:43:51.463Z,95.37
2023-01-17T02:46:18.657Z,94.79
2023-01-17T02:48:48.837Z,95.33
2023-01-17T02:51:41.832Z,95.41
2023-01-17T02:54:29.786Z,96.68
2023-01-17T02:57:11.054Z,95.01
2023-01-17T02:59:53.087Z,96.69
2023-01-17T03:02:53.077Z,96.31
2023-01-17T03:05:25.847Z,95.75
2023-01-17T03:07:56.608Z,93.89
2023-01-17T03:10:24.452Z,94.80
2023-01-17T03:12:57.888Z,94.88
2023-01-17T03:15:24.702Z,94.98
2023-01-17T03:17:59.285Z,94.69
2023-01-17T03:20:25.995Z,95.16
2023-01-17T03:22:52.868Z,94.67
2023-01-17T03:25:19.582Z,94.91
2023-01-17T03:27:48.910Z,94.66
2023-01-17T03:30:16.133Z,94.60
2023-01-17T03:32:42.819Z,94.81
2023-01-17T03:35:09.664Z,94.45
2023-01-17T03:37:36.436Z,94.90
2023-01-17T03:40:03.466Z,94.10
2023-01-17T03:42:30.064Z,94.49
2023-01-17T03:44:56.778Z,94.54
2023-01-17T03:47:23.288Z,94.37
2023-01-17T03:49:49.752Z,95.06
2023-01-17T03:52:18.695Z,94.60
2023-01-17T03:54:45.413Z,95.16
2023-01-17T03:57:12.103Z,95.18
2023-01-17T03:59:38.682Z,94.64
2023-01-17T04:02:05.521Z,95.23
2023-01-17T04:04:32.317Z,95.13
2023-01-17T04:06:58.966Z,95.09
2023-01-17T04:09:25.563Z,95.05
2023-01-17T04:11:53.429Z,94.85
2023-01-17T04:14:20.120Z,94.39
2023-01-17T04:16:46.799Z,95.04
2023-01-17T04:19:14.053Z,95.33
2023-01-17T04:21:40.747Z,94.97
2023-01-17T04:24:07.598Z,94.83
2023-01-17T04:26:34.194Z,95.02
2023-01-17T04:29:00.803Z,95.04
2023-01-17T04:31:27.850Z,95.02
2023-01-17T04:33:54.369Z,95.06
2023-01-17T04:36:21.044Z,94.66
2023-01-17T04:38:47.787Z,94.98
2023-01-17T04:41:14.544Z,94.40
2023-01-17T04:43:41.066Z,94.50
2023-01-17T04:46:10.299Z,94.34
2023-01-17T04:48:37.255Z,94.45
2023-01-17T04:51:05.339Z,94.81
2023-01-17T04:53:32.326Z,94.40
2023-01-17T04:55:58.994Z,93.88
2023-01-17T04:58:25.602Z,94.41
2023-01-17T05:00:54.980Z,93.99
2023-01-17T05:03:23.025Z,93.71
2023-01-17T05:05:50.754Z,93.87
2023-01-17T05:08:17.474Z,93.65
2023-01-17T05:10:46.325Z,93.53
2023-01-17T05:13:13.361Z,93.41
2023-01-17T05:15:40.374Z,93.76
2023-01-17T05:18:08.730Z,93.82
2023-01-17T05:20:36.710Z,93.41
2023-01-17T05:23:03.469Z,93.37
2023-01-17T05:25:32.155Z,93.07
2023-01-17T05:28:02.257Z,93.80
2023-01-17T05:30:32.777Z,93.31
2023-01-17T05:32:59.324Z,93.80
2023-01-17T05:35:29.537Z,93.32
2023-01-17T05:37:56.477Z,93.12
2023-01-17T05:40:26.372Z,93.73
2023-01-17T05:42:55.069Z,93.89
2023-01-17T05:45:23.093Z,93.55
2023-01-17T05:47:51.477Z,93.21
2023-01-17T05:50:21.559Z,92.95
2023-01-17T05:52:56.761Z,93.60
2023-01-17T05:55:24.707Z,93.34
2023-01-17T05:57:51.600Z,93.21
2023-01-17T06:00:23.234Z,93.05
2023-01-17T06:02:54.022Z,92.88
2023-01-17T06:05:21.819Z,92.96
2023-01-17T06:08:18.104Z,94.24
2023-01-17T06:11:03.985Z,93.10
2023-01-17T06:13:33.023Z,93.41
2023-01-17T06:16:04.528Z,92.95
2023-01-17T06:22:07.171Z,93.30
2023-01-17T06:26:18.869Z,94.41
2023-01-17T06:28:55.296Z,93.13
2023-01-17T06:31:32.777Z,93.27
2023-01-17T06:38:17.996Z,94.14
2023-01-17T06:44:28.436Z,92.91
2023-01-17T06:47:07.217Z,93.38
2023-01-17T06:49:50.556Z,93.00
2023-01-17T06:53:11.018Z,93.15
2023-01-17T07:00:00.087Z,94.12
2023-01-17T07:03:36.517Z,94.46
2023-01-17T07:06:43.381Z,93.39
2023-01-17T07:09:10.603Z,93.28
2023-01-17T07:12:10.081Z,93.29
2023-01-17T07:15:16.073Z,93.26
2023-01-17T07:21:47.910Z,93.44
2023-01-17T07:28:51.958Z,93.09
2023-01-17T07:32:23.056Z,94.14
2023-01-17T07:36:42.203Z,94.54
2023-01-17T07:43:56.584Z,94.12
2023-01-17T07:54:24.887Z,94.16
2023-01-17T08:00:36.631Z,93.75
2023-01-17T08:07:11.367Z,93.53
2023-01-17T08:10:05.214Z,94.70
2023-01-17T08:13:44.489Z,93.96
2023-01-17T08:17:17.676Z,93.29
2023-01-17T08:27:39.534Z,93.97
2023-01-17T08:33:40.738Z,93.94
2023-01-17T08:37:57.319Z,93.99
2023-01-17T08:56:00.130Z,94.67
2023-01-17T09:05:58.628Z,94.65
2023-01-17T09:09:02.630Z,94.54
2023-01-17T09:11:40.953Z,94.62
2023-01-17T09:17:29.321Z,95.15
2023-01-17T09:20:06.561Z,94.82
2023-01-17T09:22:37.721Z,95.25
2023-01-17T09:25:05.317Z,94.73
2023-01-17T09:27:34.473Z,94.72
2023-01-17T09:30:06.641Z,95.44
2023-01-17T09:33:43.062Z,96.13
2023-01-17T09:36:22.187Z,94.99
2023-01-17T09:38:51.094Z,95.10
2023-01-17T09:45:04.901Z,95.72
2023-01-17T09:48:17.886Z,96.63
2023-01-17T09:54:43.457Z,96.91
2023-01-17T09:57:38.489Z,96.73
2023-01-17T10:00:46.823Z,96.66
2023-01-17T10:03:47.999Z,96.85
2023-01-17T10:06:25.039Z,96.17
2023-01-17T10:09:04.970Z,96.69
2023-01-17T10:12:14.428Z,96.85
2023-01-17T10:15:38.531Z,96.89
2023-01-17T10:18:29.238Z,96.71
2023-01-17T10:33:43.381Z,98.31
2023-01-17T10:36:31.175Z,98.43
2023-01-17T10:39:12.952Z,97.88
2023-01-17T10:42:08.224Z,98.25
2023-01-17T10:49:21.730Z,99.61
2023-01-17T10:52:20.963Z,99.55
2023-01-17T10:55:05.396Z,99.26
2023-01-17T11:00:44.099Z,98.69
2023-01-17T11:03:15.982Z,99.12
2023-01-17T11:05:43.607Z,98.36
2023-01-17T11:08:13.604Z,98.10
2023-01-17T11:10:54.458Z,98.39
2023-01-17T11:30:19.868Z,100.00
2023-01-17T11:32:59.841Z,99.99
2023-01-17T11:35:35.439Z,100.00
2023-01-17T11:38:27.373Z,99.75
2023-01-17T11:41:14.246Z,98.99
2023-01-17T11:43:56.483Z,99.87
2023-01-17T11:46:28.433Z,98.55
2023-01-17T11:49:01.678Z,98.72
2023-01-17T11:51:47.456Z,99.90
2023-01-17T11:54:24.135Z,98.72
2023-01-17T11:57:01.710Z,99.19
2023-01-17T11:59:35.322Z,98.38
2023-01-17T12:06:27.240Z,99.89
2023-01-17T12:09:01.021Z,98.73
2023-01-17T12:12:06.487Z,99.75
2023-01-17T12:15:21.950Z,99.76
2023-01-17T12:18:09.167Z,98.85
2023-01-17T12:20:57.421Z,99.24
2023-01-17T12:23:57.621Z,98.86
2023-01-17T12:26:35.899Z,99.01
2023-01-17T12:29:33.059Z,99.14
2023-01-17T12:32:33.887Z,96.14
2023-01-17T12:35:09.299Z,98.66
2023-01-17T12:37:44.123Z,98.67
2023-01-17T12:40:38.081Z,99.46
2023-01-17T12:43:39.765Z,98.63
2023-01-17T12:46:27.359Z,99.13
2023-01-17T12:49:19.456Z,99.27
2023-01-17T12:51:57.840Z,98.42
2023-01-17T12:54:39.792Z,98.23
2023-01-17T12:57:18.841Z,97.70
2023-01-17T13:00:09.590Z,97.58
2023-01-17T13:03:03.235Z,97.41
2023-01-17T13:05:42.442Z,97.64
2023-01-17T13:08:24.615Z,97.77
2023-01-17T13:11:25.652Z,98.29
2023-01-17T13:13:53.498Z,96.60
2023-01-17T13:16:30.227Z,97.42
2023-01-17T13:19:04.356Z,96.44
2023-01-17T13:21:33.699Z,96.15
2023-01-17T13:24:02.339Z,96.22
2023-01-17T13:26:36.566Z,95.94
2023-01-17T13:29:16.035Z,96.56
2023-01-17T13:31:49.339Z,97.19
2023-01-17T13:34:28.186Z,96.98
2023-01-17T13:37:04.758Z,96.26
2023-01-17T13:39:35.574Z,96.92
2023-01-17T13:42:20.959Z,95.89
2023-01-17T13:44:47.832Z,95.71
2023-01-17T13:47:17.443Z,96.44
2023-01-17T13:49:51.678Z,95.73
2023-01-17T13:52:21.331Z,95.54
2023-01-17T13:54:53.655Z,94.89
2023-01-17T13:57:23.307Z,94.80
2023-01-17T13:59:50.553Z,94.39
2023-01-17T14:02:38.728Z,94.68
2023-01-17T14:05:06.841Z,93.07
2023-01-17T14:07:35.842Z,94.22
2023-01-17T14:10:29.846Z,94.92
2023-01-17T14:12:56.868Z,92.67
2023-01-17T14:15:27.164Z,93.67
2023-01-17T14:18:05.882Z,94.52
2023-01-17T14:20:42.574Z,95.15
2023-01-17T14:23:25.288Z,95.68
2023-01-17T14:25:53.244Z,94.24
2023-01-17T14:28:29.776Z,93.63
2023-01-17T14:30:59.095Z,93.37
2023-01-17T14:33:37.516Z,94.59
2023-01-17T14:36:19.560Z,94.12
2023-01-17T14:38:46.231Z,93.71
2023-01-17T14:41:26.660Z,94.35
2023-01-17T14:43:56.806Z,94.84
2023-01-17T14:46:27.817Z,94.75
2023-01-17T14:49:04.066Z,95.25
2023-01-17T14:51:35.349Z,93.88
2023-01-17T14:54:05.656Z,93.66
2023-01-17T14:56:33.204Z,94.02
2023-01-17T14:59:17.455Z,95.19
2023-01-17T15:02:06.311Z,95.25
2023-01-17T15:04:39.348Z,94.48
2023-01-17T15:07:07.591Z,94.32
2023-01-17T15:09:38.076Z,94.71
2023-01-17T15:12:08.486Z,94.81
2023-01-17T15:14:39.213Z,94.96
2023-01-17T15:17:25.077Z,95.68
2023-01-17T15:20:01.496Z,95.08
2023-01-17T15:22:29.901Z,94.47
2023-01-17T15:24:58.721Z,94.53
2023-01-17T15:27:26.273Z,94.42
2023-01-17T15:29:54.212Z,94.77
2023-01-17T15:32:28.066Z,94.70
2023-01-17T15:34:54.905Z,94.26
2023-01-17T15:37:27.373Z,95.00
2023-01-17T15:40:22.141Z,95.02
2023-01-17T15:42:56.711Z,94.82
2023-01-17T15:45:29.068Z,94.29
2023-01-17T15:47:55.972Z,94.03
2023-01-17T15:50:26.721Z,93.80
2023-01-17T15:52:58.175Z,93.82
2023-01-17T15:55:39.290Z,94.33
2023-01-17T15:58:25.517Z,94.91
2023-01-17T16:00:52.219Z,93.03
2023-01-17T16:03:21.880Z,93.67
2023-01-17T16:05:50.116Z,93.22
2023-01-17T16:08:16.742Z,93.38
2023-01-17T16:10:44.740Z,93.12
2023-01-17T16:13:13.741Z,93.66
2023-01-17T16:15:41.675Z,92.97
2023-01-17T16:18:20.490Z,94.14
2023-01-17T16:20:52.030Z,93.17
2023-01-17T16:23:18.800Z,92.46
2023-01-17T16:25:46.341Z,93.22
2023-01-17T16:28:13.198Z,92.99
2023-01-17T16:30:39.832Z,92.72
2023-01-17T16:33:06.729Z,92.68
2023-01-17T16:35:34.889Z,92.96
2023-01-17T16:38:07.576Z,92.81
2023-01-17T16:40:40.529Z,94.16
2023-01-17T16:43:07.723Z,92.77
2023-01-17T16:45:55.996Z,94.60
2023-01-17T16:48:22.764Z,93.19
2023-01-17T16:50:53.639Z,93.25
2023-01-17T16:53:25.305Z,93.18
2023-01-17T16:55:55.537Z,93.56
2023-01-17T16:58:22.993Z,92.75
2023-01-17T17:00:49.762Z,92.90
2023-01-17T17:03:18.376Z,92.89
2023-01-17T17:05:47.309Z,92.81
2023-01-17T17:08:15.476Z,92.91
2023-01-17T17:10:42.565Z,92.33
2023-01-17T17:13:09.399Z,92.47
2023-01-17T17:15:41.411Z,92.82
2023-01-17T17:18:12.879Z,93.18
2023-01-17T17:20:39.571Z,92.89
2023-01-17T17:23:06.241Z,92.60
2023-01-17T17:25:33.273Z,92.86
2023-01-17T17:27:59.997Z,92.74
2023-01-17T17:30:27.314Z,93.14
2023-01-17T17:32:54.027Z,92.51
2023-01-17T17:35:20.756Z,93.04
2023-01-17T17:37:47.382Z,92.80
2023-01-17T17:40:14.197Z,92.69
2023-01-17T17:42:42.941Z,92.71
2023-01-17T17:45:10.111Z,92.60
2023-01-17T17:47:38.996Z,92.37
2023-01-17T17:50:05.940Z,92.52
2023-01-17T17:52:32.667Z,92.79
2023-01-17T17:54:59.345Z,92.74
2023-01-17T17:57:25.985Z,92.78
2023-01-17T17:59:56.287Z,92.30
2023-01-17T18:02:22.973Z,92.31
2023-01-17T18:04:49.695Z,92.23
2023-01-17T18:07:16.392Z,92.66
2023-01-17T18:09:43.186Z,92.57
2023-01-17T18:12:09.874Z,92.46
2023-01-17T18:14:36.481Z,92.34
2023-01-17T18:17:03.242Z,92.11
2023-01-17T18:19:30.076Z,92.53
2023-01-17T18:21:56.880Z,92.22
2023-01-17T18:24:24.937Z,92.82
2023-01-17T18:26:57.259Z,93.09
2023-01-17T18:29:25.214Z,92.64
2023-01-17T18:31:52.896Z,92.65
2023-01-17T18:34:24.027Z,92.57
2023-01-17T18:36:51.861Z,92.28
2023-01-17T18:39:29.551Z,93.57
2023-01-17T18:41:56.798Z,92.28
2023-01-17T18:44:23.716Z,92.25
2023-01-17T18:46:52.467Z,92.62
2023-01-17T18:49:19.540Z,91.98
2023-01-17T18:51:51.128Z,92.35
2023-01-17T18:54:19.249Z,92.33
2023-01-17T18:56:46.146Z,92.70
2023-01-17T18:59:16.392Z,92.77
2023-01-17T19:01:43.835Z,92.46
2023-01-17T19:04:12.131Z,93.00
2023-01-17T19:06:41.948Z,92.44
2023-01-17T19:09:11.991Z,92.40
2023-01-17T19:11:39.205Z,92.33
2023-01-17T19:14:07.000Z,92.57
2023-01-17T19:16:39.146Z,92.78
2023-01-17T19:19:08.582Z,92.48
2023-01-17T19:21:35.782Z,91.97
2023-01-17T19:24:05.311Z,92.73
2023-01-17T19:26:31.989Z,92.39
2023-01-17T19:29:00.142Z,92.29
2023-01-17T19:31:30.676Z,92.22
2023-01-17T19:33:59.542Z,92.55
2023-01-17T19:36:34.043Z,92.80
2023-01-17T19:39:06.251Z,92.00
2023-01-17T19:41:37.438Z,92.23
2023-01-17T19:44:22.758Z,92.59
2023-01-17T19:46:49.476Z,92.67
2023-01-17T19:49:26.719Z,92.29
2023-01-17T19:51:56.455Z,92.49
2023-01-17T19:54:35.627Z,92.64
2023-01-17T19:57:06.692Z,93.14
2023-01-17T19:59:33.530Z,92.57
2023-01-17T20:02:22.374Z,92.55
2023-01-17T20:04:48.863Z,92.72
2023-01-17T20:07:15.945Z,93.08
2023-01-17T20:09:44.362Z,93.23
2023-01-17T20:12:11.201Z,91.93
2023-01-17T20:14:37.849Z,92.02
2023-01-17T20:17:05.010Z,91.87
2023-01-17T20:19:32.604Z,91.75
2023-01-17T20:22:07.517Z,92.29
2023-01-17T20:24:38.262Z,90.99
2023-01-17T20:27:07.695Z,91.45
2023-01-17T20:29:40.632Z,91.52
2023-01-17T20:32:07.980Z,91.50
2023-01-17T20:34:34.804Z,91.38
2023-01-17T20:37:08.010Z,91.55
2023-01-17T20:39:40.171Z,91.45
2023-01-17T20:42:06.839Z,92.05
2023-01-17T20:44:34.695Z,91.32
2023-01-17T20:47:09.315Z,92.21
2023-01-17T20:49:43.334Z,91.61
2023-01-17T20:52:18.385Z,91.91
2023-01-17T20:54:48.547Z,92.69
2023-01-17T20:57:22.394Z,91.63
2023-01-17T20:59:57.531Z,91.49
2023-01-17T21:02:26.800Z,92.30
2023-01-17T21:04:53.499Z,91.78
2023-01-17T21:07:20.593Z,91.80
2023-01-17T21:09:52.968Z,91.99
2023-01-17T21:12:22.039Z,91.94
2023-01-17T21:14:48.650Z,91.59
2023-01-17T21:17:18.201Z,91.82
2023-01-17T21:19:58.814Z,91.80
2023-01-17T21:26:32.736Z,91.87
2023-01-17T21:29:03.737Z,91.60
2023-01-17T21:31:41.123Z,91.63
2023-01-17T21:34:10.097Z,91.88
2023-01-17T21:36:56.934Z,92.20
2023-01-17T21:39:40.992Z,91.53
2023-01-17T21:46:17.994Z,92.99
2023-01-17T21:48:58.240Z,92.11
2023-01-17T21:51:55.974Z,92.68
2023-01-17T21:54:46.755Z,93.11
2023-01-17T21:57:41.768Z,92.21
2023-01-17T22:00:18.636Z,92.45
2023-01-17T22:02:46.807Z,92.66
2023-01-17T22:05:30.809Z,91.99
2023-01-17T22:08:29.084Z,92.98
2023-01-17T22:11:11.827Z,92.32
2023-01-17T22:13:43.721Z,92.45
2023-01-17T22:16:32.031Z,92.77
2023-01-17T22:19:01.977Z,92.40
2023-01-17T22:21:37.536Z,92.19
2023-01-17T22:24:20.640Z,92.49
2023-01-17T22:29:34.146Z,92.17
2023-01-17T22:32:08.241Z,92.16
2023-01-17T22:34:35.880Z,92.12
2023-01-17T22:37:12.751Z,91.97
2023-01-17T22:40:19.418Z,93.01
2023-01-17T22:42:50.732Z,92.05
2023-01-17T22:45:33.650Z,92.96
2023-01-17T22:48:02.608Z,91.95
2023-01-17T22:50:31.551Z,92.37
2023-01-17T22:53:01.468Z,92.09
2023-01-17T22:55:36.176Z,92.01
2023-01-17T22:58:09.765Z,92.61
2023-01-17T23:01:12.326Z,91.71
2023-01-17T23:04:06.161Z,92.12
2023-01-17T23:06:35.657Z,91.77
2023-01-17T23:09:06.789Z,91.99
2023-01-17T23:11:39.047Z,91.71
2023-01-17T23:14:08.044Z,91.47
2023-01-17T23:16:53.163Z,91.73
2023-01-17T23:19:22.515Z,91.69
2023-01-17T23:22:15.053Z,91.45
2023-01-17T23:25:00.292Z,91.98
2023-01-17T23:27:52.113Z,92.60
2023-01-17T23:30:23.649Z,92.22
2023-01-17T23:32:54.115Z,92.10
2023-01-17T23:35:26.479Z,92.00
2023-01-17T23:38:12.464Z,92.18
2023-01-17T23:40:39.747Z,91.66
2023-01-17T23:43:25.800Z,92.21
2023-01-17T23:45:54.531Z,92.15
2023-01-17T23:48:23.726Z,91.72
2023-01-17T23:50:50.721Z,92.13
2023-01-17T23:53:23.354Z,91.79
2023-01-17T23:55:52.504Z,92.13
2023-01-17T23:58:20.949Z,91.88
